This is the latest recevied weather packets stored in our database for station/object KO4ILY. If no packets are shown the sender has not sent any weather packets the latest 10 day(s).
| Time | Temp. | Humidity | Pressure | Rain* | Wind** | Luminosity | Snow |
|---|---|---|---|---|---|---|---|
| 1787518805 | 31.67° C | 45% | 1013.5 hPa | 0 mm | - | - | - |
| 1787515206 | 31.11° C | 45% | 1013.8 hPa | 0 mm | - | - | - |
| 1787511606 | 31.11° C | 42% | 1014.2 hPa | 0 mm | - | - | - |
| 1787508006 | 29.44° C | 49% | 1014.9 hPa | 0 mm | - | - | - |
| 1787504406 | 28.33° C | 52% | 1015.5 hPa | 0 mm | - | - | - |
| 1787500805 | 27.78° C | 63% | 1015.7 hPa | 0 mm | - | - | - |
| 1787497205 | 26.11° C | 70% | 1016 hPa | 0 mm | - | - | - |
| 1787493606 | 23.89° C | 84% | 1016.2 hPa | 0 mm | - | - | - |
| 1787490005 | 21.67° C | 94% | 1016.2 hPa | 0 mm | - | - | - |
| 1787486406 | 20.56° C | 99% | 1015.8 hPa | 0 mm | - | - | - |
| 1787482806 | 20.56° C | 99% | 1015.4 hPa | 0 mm | - | - | - |
| 1787479206 | 20.56° C | 98% | 1014.9 hPa | 0 mm | - | - | - |
| 1787475606 | 21.11° C | 97% | 1014.3 hPa | 0 mm | - | - | - |
| 1787472006 | 21.67° C | 96% | 1014.1 hPa | 0 mm | - | - | - |
| 1787468406 | 21.11° C | 95% | 1014.2 hPa | 0 mm | - | - | - |
| 1787464806 | 22.22° C | 93% | 1014.3 hPa | 0 mm | - | - | - |
| 1787461205 | 22.22° C | 91% | 1014.5 hPa | 0 mm | - | - | - |
| 1787457606 | 22.78° C | 88% | 1014.4 hPa | 0 mm | - | - | - |
| 1787454005 | 23.33° C | 85% | 1014.3 hPa | 0 mm | - | - | - |
| 1787450405 | 24.44° C | 77% | 1013.8 hPa | 0 mm | - | - | - |
| 1787446805 | 25° C | 74% | 1013.7 hPa | 0 mm | - | - | - |
| 1787443205 | 28.33° C | 65% | 1012.8 hPa | 0 mm | - | - | - |
| 1787439605 | 30° C | 55% | 1012.9 hPa | 0 mm | - | - | - |
| 1787436005 | 33.89° C | 45% | 1012.1 hPa | 0 mm | - | - | - |
| 1787432405 | 33.33° C | 48% | 1012.6 hPa | 0 mm | - | - | - |
* Rain latest hour (hover to see other rain measurements)
** Current wind speed in m/s (hover to see current wind gust speed)